createdAt,value
2019-06-10T00:03:26.710Z,16.4
2019-06-10T00:08:26.770Z,16.4
2019-06-10T00:13:27.248Z,16.3
2019-06-10T00:18:38.170Z,16.3
2019-06-10T00:23:31.985Z,16.3
2019-06-10T00:28:27.232Z,16.2
2019-06-10T00:33:27.381Z,16.2
2019-06-10T00:38:27.281Z,16.2
2019-06-10T00:43:27.226Z,16.1
2019-06-10T00:48:29.219Z,16.1
2019-06-10T00:53:28.239Z,16
2019-06-10T00:58:28.145Z,16
2019-06-10T01:03:28.182Z,15.9
2019-06-10T01:08:28.155Z,15.8
2019-06-10T01:13:30.764Z,15.8
2019-06-10T01:18:35.380Z,15.7
2019-06-10T01:23:31.102Z,15.7
2019-06-10T01:28:31.478Z,15.6
2019-06-10T01:33:31.818Z,15.6
2019-06-10T01:38:31.632Z,15.5
2019-06-10T01:43:31.958Z,15.5
2019-06-10T01:48:41.313Z,15.4
2019-06-10T01:53:31.377Z,15.4
2019-06-10T01:58:31.730Z,15.3
2019-06-10T02:03:31.511Z,15.3
2019-06-10T02:08:31.545Z,15.2
2019-06-10T02:13:32.401Z,15.1
2019-06-10T02:18:31.867Z,15.1
2019-06-10T02:23:31.808Z,15
2019-06-10T02:28:32.132Z,15
2019-06-10T02:33:35.886Z,15
2019-06-10T02:38:35.064Z,14.9
2019-06-10T02:43:36.757Z,14.9
2019-06-10T02:48:34.898Z,14.9
2019-06-10T02:53:37.765Z,14.9
2019-06-10T02:59:06.111Z,14.9
2019-06-10T03:04:06.552Z,14.8
2019-06-10T03:09:06.911Z,14.9
2019-06-10T03:14:07.139Z,14.8
2019-06-10T03:19:13.607Z,14.8
2019-06-10T03:24:13.533Z,14.8
2019-06-10T03:29:14.277Z,14.7
2019-06-10T03:34:33.314Z,14.7
2019-06-10T03:39:27.199Z,14.7
2019-06-10T03:44:28.318Z,14.7
2019-06-10T03:49:27.420Z,14.7
2019-06-10T03:54:29.082Z,14.7
2019-06-10T03:59:29.318Z,14.6
2019-06-10T04:04:28.260Z,14.6
2019-06-10T04:09:27.432Z,14.6
2019-06-10T04:14:34.790Z,14.6
2019-06-10T04:19:36.130Z,14.6
2019-06-10T04:24:39.302Z,14.6
2019-06-10T04:29:39.173Z,14.5
2019-06-10T04:34:39.256Z,14.6
2019-06-10T04:39:39.285Z,14.6
2019-06-10T04:44:39.193Z,14.6
2019-06-10T04:49:39.191Z,14.6
2019-06-10T04:54:42.102Z,14.7
2019-06-10T04:59:42.825Z,14.7
2019-06-10T05:04:42.584Z,14.8
2019-06-10T05:09:42.199Z,14.9
2019-06-10T05:14:43.090Z,14.9
2019-06-10T05:19:42.802Z,15
2019-06-10T05:24:42.385Z,15.1
2019-06-10T05:29:43.335Z,15.2
2019-06-10T05:34:43.761Z,15.3
2019-06-10T05:40:09.068Z,15.4
2019-06-10T05:45:08.806Z,15.4
2019-06-10T05:50:08.780Z,15.5
2019-06-10T05:55:08.738Z,15.6
2019-06-10T06:00:11.955Z,15.7
2019-06-10T06:05:09.850Z,15.8
2019-06-10T06:10:09.845Z,15.9
2019-06-10T06:15:09.860Z,16
2019-06-10T06:20:09.820Z,16.1
2019-06-10T06:25:09.883Z,16.2
2019-06-10T06:30:11.980Z,16.3
2019-06-10T06:35:09.828Z,16.5
2019-06-10T06:40:09.890Z,16.5
2019-06-10T06:45:12.148Z,16.7
2019-06-10T06:50:13.013Z,16.9
2019-06-10T06:55:18.097Z,17
2019-06-10T07:00:38.020Z,17.2
2019-06-10T07:05:18.299Z,17.3
2019-06-10T07:10:18.748Z,17.4
2019-06-10T07:15:38.672Z,17.5
2019-06-10T07:20:45.554Z,17.6
2019-06-10T07:25:57.309Z,17.6
2019-06-10T07:30:57.373Z,17.8
2019-06-10T07:36:14.437Z,18
2019-06-10T07:41:24.982Z,18.2
2019-06-10T07:46:27.050Z,18.4
2019-06-10T07:51:27.280Z,18.5
2019-06-10T07:56:34.414Z,18.6
2019-06-10T08:01:35.009Z,18.8
2019-06-10T08:06:35.106Z,18.9
2019-06-10T08:11:35.047Z,19
2019-06-10T08:16:33.665Z,19.1
2019-06-10T08:21:34.331Z,19.2
2019-06-10T08:26:35.344Z,19.2
2019-06-10T08:31:38.777Z,19.5
2019-06-10T08:36:39.465Z,20
2019-06-10T08:41:39.100Z,20.4
2019-06-10T08:46:46.559Z,20.6
2019-06-10T08:51:53.280Z,20.8
2019-06-10T09:02:34.304Z,21.1
2019-06-10T09:07:34.259Z,21.4
2019-06-10T09:13:29.294Z,21.8
2019-06-10T09:18:33.641Z,21.9
2019-06-10T09:23:36.349Z,22.2
2019-06-10T09:28:34.131Z,22.3
2019-06-10T09:33:34.363Z,22.5
2019-06-10T09:38:34.642Z,22.8
2019-06-10T09:43:36.673Z,23.1
2019-06-10T09:48:35.232Z,23.4
2019-06-10T09:53:42.597Z,23.7
2019-06-10T09:58:36.966Z,24
2019-06-10T10:03:37.114Z,24.3
2019-06-10T10:08:37.986Z,24.7
2019-06-10T10:13:45.557Z,24.5
2019-06-10T10:18:47.220Z,24.5
2019-06-10T10:24:04.257Z,24.4
2019-06-10T10:28:53.095Z,24.7
2019-06-10T10:33:50.671Z,24.7
2019-06-10T10:38:51.260Z,25.2
2019-06-10T10:43:56.457Z,25.4
2019-06-10T11:02:49.511Z,26.3
2019-06-10T11:07:54.767Z,26.5
2019-06-10T11:12:51.502Z,26.5
2019-06-10T11:17:56.290Z,26.5
2019-06-10T11:22:57.955Z,26.5
2019-06-10T11:28:03.357Z,26.7
2019-06-10T11:33:03.173Z,26.7
2019-06-10T11:38:03.226Z,26.7
2019-06-10T11:43:01.104Z,26.8
2019-06-10T11:48:02.446Z,26.8
2019-06-10T11:53:06.254Z,26.7
2019-06-10T11:58:06.112Z,26.7
2019-06-10T12:03:07.909Z,26.7
2019-06-10T12:08:07.314Z,26.6
2019-06-10T12:13:08.031Z,26.5
2019-06-10T12:18:09.354Z,26.6
2019-06-10T12:23:12.648Z,26.6
2019-06-10T12:28:13.519Z,26.8
2019-06-10T12:33:35.965Z,26.8
2019-06-10T12:38:43.272Z,26.7
2019-06-10T12:43:50.479Z,26.8
2019-06-10T12:49:00.012Z,26.9
2019-06-10T12:54:03.016Z,26.9
2019-06-10T12:59:06.671Z,26.6
2019-06-10T13:04:05.244Z,26.7
2019-06-10T13:09:06.318Z,26.8
2019-06-10T13:14:09.966Z,26.7
2019-06-10T13:19:33.630Z,26.6
2019-06-10T13:24:33.731Z,26.5
2019-06-10T13:29:34.216Z,26.8
2019-06-10T13:34:42.370Z,26.9
2019-06-10T13:39:47.531Z,26.9
2019-06-10T13:44:59.918Z,26.7
2019-06-10T13:50:13.793Z,26.9
2019-06-10T13:55:17.950Z,27
2019-06-10T14:00:37.743Z,27.1
2019-06-10T14:05:34.349Z,26.8
2019-06-10T14:10:34.135Z,26.9
2019-06-10T14:15:37.914Z,26.9
2019-06-10T14:20:38.897Z,26.9
2019-06-10T14:25:39.121Z,26.9
2019-06-10T14:30:42.992Z,27.1
2019-06-10T14:35:42.957Z,27
2019-06-10T14:40:55.654Z,26.9
2019-06-10T14:45:54.285Z,26.8
2019-06-10T14:51:16.637Z,26.6
2019-06-10T14:56:27.608Z,26.6
2019-06-10T15:01:43.869Z,26.7
2019-06-10T15:06:44.932Z,26.5
2019-06-10T15:11:44.444Z,26.3
2019-06-10T15:16:53.334Z,26.2
2019-06-10T15:22:02.843Z,26.2
2019-06-10T15:27:19.145Z,26.1
2019-06-10T15:32:20.229Z,25.9
2019-06-10T15:37:20.651Z,26
2019-06-10T15:42:22.537Z,26.2
2019-06-10T15:47:29.348Z,25.9
2019-06-10T15:52:32.840Z,25.9
2019-06-10T15:57:42.477Z,26
2019-06-10T16:02:37.203Z,26
2019-06-10T16:07:37.455Z,25.9
2019-06-10T16:12:37.580Z,25.8
2019-06-10T16:17:37.452Z,25.6
2019-06-10T16:22:42.937Z,25.5
2019-06-10T16:27:48.189Z,25.4
2019-06-10T16:32:41.717Z,25.1
2019-06-10T16:37:42.288Z,24.9
2019-06-10T16:42:53.290Z,24.8
2019-06-10T16:47:53.021Z,24.7
2019-06-10T16:52:53.673Z,24.5
2019-06-10T16:57:59.062Z,24.4
2019-06-10T17:03:01.172Z,24.3
2019-06-10T17:08:03.850Z,24.2
2019-06-10T17:13:03.813Z,24.1
2019-06-10T17:18:03.661Z,23.9
2019-06-10T17:23:09.240Z,23.8
2019-06-10T17:28:17.977Z,23.7
2019-06-10T17:33:12.964Z,23.7
2019-06-10T17:38:12.316Z,23.6
2019-06-10T17:43:12.570Z,23.5
2019-06-10T17:48:13.797Z,23.5
2019-06-10T17:53:19.126Z,23.4
2019-06-10T17:58:31.679Z,23.3
2019-06-10T18:03:18.917Z,23.2
2019-06-10T18:08:22.779Z,23.1
2019-06-10T18:13:24.270Z,23
2019-06-10T18:18:37.206Z,22.9
2019-06-10T18:23:35.845Z,22.8
2019-06-10T18:28:57.656Z,22.7
2019-06-10T18:33:37.995Z,22.6
2019-06-10T18:38:39.741Z,22.5
2019-06-10T18:43:41.192Z,22.3
2019-06-10T18:48:53.482Z,22.2
2019-06-10T18:53:51.043Z,22
2019-06-10T18:58:52.996Z,21.9
2019-06-10T19:09:47.737Z,21.6
2019-06-10T19:14:46.382Z,21.5
2019-06-10T19:21:27.083Z,21.5
2019-06-10T19:24:55.831Z,21.2
2019-06-10T19:29:55.863Z,20.6
2019-06-10T19:34:55.862Z,20.4
2019-06-10T19:39:55.933Z,20.2
2019-06-10T19:44:57.939Z,20
2019-06-10T19:49:59.726Z,20
2019-06-10T19:55:02.618Z,19.8
2019-06-10T20:00:08.268Z,19.6
2019-06-10T20:05:03.242Z,19.5
2019-06-10T20:10:04.130Z,19.4
2019-06-10T20:15:05.367Z,19.3
2019-06-10T20:20:06.611Z,19.1
2019-06-10T20:25:07.662Z,19
2019-06-10T20:30:21.441Z,19
2019-06-10T20:35:12.509Z,18.9
2019-06-10T20:40:20.110Z,18.8
2019-06-10T20:45:26.363Z,18.7
2019-06-10T20:50:32.286Z,18.5
2019-06-10T20:55:41.004Z,18.4
2019-06-10T21:00:41.662Z,18.2
2019-06-10T21:05:39.537Z,18.1
2019-06-10T21:10:39.672Z,18.1
2019-06-10T21:15:38.178Z,17.9
2019-06-10T21:20:38.197Z,17.8
2019-06-10T21:25:57.196Z,17.8
2019-06-10T21:31:04.955Z,17.6
2019-06-10T21:36:04.873Z,17.5
2019-06-10T21:41:04.874Z,17.4
2019-06-10T21:46:04.937Z,17.3
2019-06-10T21:51:04.899Z,17.2
2019-06-10T21:56:04.829Z,17.1
2019-06-10T22:01:11.909Z,17
2019-06-10T22:06:04.979Z,16.9
2019-06-10T22:11:04.860Z,16.8
2019-06-10T22:16:04.844Z,16.7
2019-06-10T22:21:05.562Z,16.6
2019-06-10T22:26:05.707Z,16.5
2019-06-10T22:31:18.919Z,16.5
2019-06-10T22:36:05.700Z,16.5
2019-06-10T22:41:05.550Z,16.4
2019-06-10T22:46:05.602Z,16.4
2019-06-10T22:51:05.613Z,16.4
2019-06-10T22:56:06.216Z,16.3
2019-06-10T23:01:06.142Z,16.2
2019-06-10T23:06:06.598Z,16.2
2019-06-10T23:11:06.047Z,16.2
2019-06-10T23:16:06.067Z,16.2
2019-06-10T23:21:06.423Z,16.2
2019-06-10T23:26:06.368Z,16.1
2019-06-10T23:31:12.857Z,15.9
2019-06-10T23:36:20.368Z,15.9
2019-06-10T23:41:22.295Z,15.8
2019-06-10T23:46:22.542Z,15.8
2019-06-10T23:51:22.615Z,15.8
2019-06-10T23:56:22.076Z,15.8
